Time;durP1;ratioP1;P1;durP2;ratioP2;P2;SDS_P1;SDS_P2;PMS_P1;PMS_P2;Temp;Humidity;BMP_temperature;BMP_pressure;BME280_temperature;BME280_humidity;BME280_pressure;Samples;Min_cycle;Max_cycle;Signal;HPM_P1;HPM_P2
2023/10/11 00:02:08;;;;;;;12.57;6.20;;;13.30;99.90;;;;;;5006156;28;20248;-57
2023/10/11 00:04:35;;;;;;;11.13;6.33;;;13.20;99.90;;;;;;5004366;28;20291;-57
2023/10/11 00:07:03;;;;;;;11.87;6.13;;;13.20;99.90;;;;;;5002360;28;20238;-59
2023/10/11 00:09:35;;;;;;;14.73;6.50;;;13.20;99.90;;;;;;5002778;28;20234;-58
2023/10/11 00:12:04;;;;;;;11.43;5.80;;;13.10;99.90;;;;;;5005872;28;20207;-58
2023/10/11 00:14:31;;;;;;;13.23;6.33;;;13.10;99.90;;;;;;5004861;28;20342;-58
2023/10/11 00:16:58;;;;;;;11.93;6.30;;;13.10;99.90;;;;;;5002330;28;20223;-59
2023/10/11 00:19:29;;;;;;;15.07;6.10;;;13.10;99.90;;;;;;5002152;28;20207;-58
2023/10/11 00:21:56;;;;;;;9.30;6.13;;;13.10;99.90;;;;;;5002219;28;20243;-58
2023/10/11 00:24:24;;;;;;;9.60;5.67;;;13.10;99.90;;;;;;5002224;28;20234;-57
2023/10/11 00:26:51;;;;;;;10.87;6.13;;;13.10;99.90;;;;;;5002106;28;20203;-58
2023/10/11 00:29:18;;;;;;;11.43;5.27;;;13.10;99.90;;;;;;5002045;28;20218;-58
2023/10/11 00:31:45;;;;;;;15.30;6.53;;;13.10;99.90;;;;;;5004702;28;20207;-58
2023/10/11 00:34:13;;;;;;;12.07;5.47;;;13.10;99.90;;;;;;5005315;28;20245;-58
2023/10/11 00:36:42;;;;;;;8.13;5.10;;;13.10;99.90;;;;;;5003261;28;20218;-58
2023/10/11 00:39:16;;;;;;;15.57;6.10;;;13.20;99.90;;;;;;5001952;28;20219;-58
2023/10/11 00:41:47;;;;;;;16.80;6.50;;;13.20;99.90;;;;;;5003947;28;20208;-61
2023/10/11 00:44:16;;;;;;;11.90;5.80;;;13.20;99.90;;;;;;5005246;28;20202;-59
2023/10/11 00:46:53;;;;;;;12.33;5.73;;;13.30;99.90;;;;;;5002558;28;20218;-59
2023/10/11 00:49:21;;;;;;;10.50;5.73;;;13.30;99.90;;;;;;5001756;28;20285;-59
2023/10/11 00:51:47;;;;;;;10.40;5.70;;;13.40;99.90;;;;;;5004971;28;20281;-59
2023/10/11 00:54:16;;;;;;;13.80;5.30;;;13.30;99.90;;;;;;5004645;28;20211;-59
2023/10/11 00:56:45;;;;;;;11.23;5.73;;;13.40;99.90;;;;;;5002342;28;20207;-58
2023/10/11 00:59:15;;;;;;;14.33;5.63;;;13.40;99.90;;;;;;5001241;28;20211;-59
2023/10/11 01:01:43;;;;;;;11.80;5.80;;;13.40;99.90;;;;;;5003525;28;20261;-59
2023/10/11 01:04:10;;;;;;;12.80;5.77;;;13.50;99.90;;;;;;5004706;28;20653;-59
2023/10/11 01:06:37;;;;;;;11.37;5.33;;;13.50;99.90;;;;;;5003343;28;20214;-59
2023/10/11 01:09:15;;;;;;;12.20;5.67;;;13.50;99.90;;;;;;5001594;28;20218;-59
2023/10/11 01:11:41;;;;;;;13.13;6.10;;;13.60;99.90;;;;;;5003005;28;20215;-58
2023/10/11 01:14:11;;;;;;;9.33;5.50;;;13.70;99.90;;;;;;5004507;28;20207;-59
2023/10/11 01:16:38;;;;;;;8.90;5.17;;;13.80;99.90;;;;;;5002993;28;20226;-58
2023/10/11 01:19:10;;;;;;;14.10;6.63;;;13.80;99.90;;;;;;5001201;28;20207;-58
2023/10/11 01:21:38;;;;;;;14.93;5.70;;;13.90;99.90;;;;;;5002507;28;20211;-59
2023/10/11 01:24:08;;;;;;;10.77;5.53;;;13.90;99.90;;;;;;5004370;28;20214;-58
2023/10/11 01:26:35;;;;;;;11.40;5.67;;;14.00;99.90;;;;;;5002921;28;20210;-58
2023/10/11 01:29:01;;;;;;;7.90;5.00;;;14.00;99.90;;;;;;5001080;28;20208;-58
2023/10/11 01:31:32;;;;;;;12.93;5.47;;;14.10;99.90;;;;;;5001229;28;20594;-58
2023/10/11 01:34:00;;;;;;;14.37;5.77;;;14.10;99.90;;;;;;5004464;28;20207;-59
2023/10/11 01:36:26;;;;;;;11.53;5.63;;;14.10;99.90;;;;;;5004475;28;20241;-57
2023/10/11 01:39:00;;;;;;;11.90;5.10;;;14.20;99.90;;;;;;5000617;28;20233;-58
2023/10/11 01:41:27;;;;;;;14.27;5.60;;;14.10;99.90;;;;;;5001005;28;20213;-57
2023/10/11 01:43:55;;;;;;;12.07;5.30;;;14.10;99.90;;;;;;5004411;28;20285;-57
2023/10/11 01:46:24;;;;;;;11.80;6.03;;;14.00;99.90;;;;;;5004090;28;20581;-58
2023/10/11 01:48:51;;;;;;;14.23;5.83;;;14.00;99.90;;;;;;5000563;28;20233;-60
2023/10/11 01:51:25;;;;;;;11.97;5.57;;;13.90;99.90;;;;;;5000539;28;20207;-57
2023/10/11 01:53:54;;;;;;;10.23;5.23;;;13.90;99.90;;;;;;5003930;28;20277;-56
2023/10/11 01:56:23;;;;;;;11.83;5.80;;;13.90;99.90;;;;;;5003675;28;20230;-57
2023/10/11 01:58:51;;;;;;;9.47;5.50;;;13.90;99.90;;;;;;5000246;28;20277;-58
2023/10/11 02:01:21;;;;;;;11.30;6.07;;;13.90;99.90;;;;;;5000922;28;20235;-58
2023/10/11 02:03:51;;;;;;;14.60;6.60;;;13.90;99.90;;;;;;5002912;28;20214;-59
2023/10/11 02:06:18;;;;;;;12.27;5.93;;;13.90;99.90;;;;;;5003202;28;20234;-59
2023/10/11 02:08:45;;;;;;;12.77;5.97;;;13.90;99.90;;;;;;5001362;28;20245;-60
2023/10/11 02:11:14;;;;;;;12.07;6.37;;;13.90;99.90;;;;;;5000369;28;20214;-57
2023/10/11 02:13:41;;;;;;;12.93;5.80;;;13.90;99.90;;;;;;5001754;28;20246;-59
2023/10/11 02:16:11;;;;;;;12.07;5.87;;;13.70;99.90;;;;;;5003350;28;20627;-58
2023/10/11 02:18:38;;;;;;;11.97;6.67;;;13.80;99.90;;;;;;5001871;28;20700;-58
2023/10/11 02:21:06;;;;;;;12.10;6.10;;;13.80;99.90;;;;;;5000298;28;20596;-56
2023/10/11 02:23:37;;;;;;;12.80;5.63;;;13.80;99.90;;;;;;5000616;28;20239;-57
2023/10/11 02:26:04;;;;;;;11.30;5.90;;;13.70;99.90;;;;;;5003421;28;20293;-58
2023/10/11 02:28:32;;;;;;;10.33;5.43;;;13.60;99.90;;;;;;5002559;28;20612;-58
2023/10/11 02:30:59;;;;;;;12.87;5.87;;;13.60;99.90;;;;;;4999819;28;20215;-57
2023/10/11 02:33:25;;;;;;;12.53;5.60;;;13.60;99.90;;;;;;4999852;28;20654;-59
2023/10/11 02:35:55;;;;;;;9.90;5.10;;;13.60;99.90;;;;;;5002902;28;20227;-59
2023/10/11 02:38:23;;;;;;;15.23;6.00;;;13.60;99.90;;;;;;5003119;28;20227;-59
2023/10/11 02:40:55;;;;;;;11.40;5.90;;;13.60;99.90;;;;;;5000413;28;20322;-59
2023/10/11 02:43:26;;;;;;;11.00;5.70;;;13.60;99.90;;;;;;4999954;28;20314;-58
2023/10/11 02:45:54;;;;;;;13.03;5.20;;;13.50;99.90;;;;;;5002787;28;20692;-58
2023/10/11 02:48:21;;;;;;;12.53;5.67;;;13.60;99.90;;;;;;5003186;28;20235;-58
2023/10/11 02:50:49;;;;;;;11.40;5.00;;;13.60;99.90;;;;;;5000742;28;20214;-57
2023/10/11 02:53:22;;;;;;;11.70;4.90;;;13.70;99.90;;;;;;4999867;28;20207;-57
2023/10/11 02:55:57;;;;;;;12.37;5.17;;;13.70;99.90;;;;;;5001827;28;20242;-57
2023/10/11 02:58:26;;;;;;;9.47;5.20;;;13.70;99.90;;;;;;5002499;28;20602;-59
2023/10/11 03:00:59;;;;;;;12.37;5.40;;;13.70;99.90;;;;;;4999569;28;20226;-59
2023/10/11 03:03:27;;;;;;;19.87;4.97;;;13.70;99.90;;;;;;4999496;28;20213;-58
2023/10/11 03:05:55;;;;;;;10.43;4.83;;;13.60;99.90;;;;;;5002503;28;20206;-58
2023/10/11 03:08:22;;;;;;;11.30;4.90;;;13.60;99.90;;;;;;5002658;28;20231;-58
2023/10/11 03:10:54;;;;;;;11.17;5.03;;;13.60;99.90;;;;;;5000353;28;20294;-58
2023/10/11 03:13:24;;;;;;;10.57;5.33;;;13.60;99.90;;;;;;4999865;28;20614;-57
2023/10/11 03:15:54;;;;;;;15.30;5.17;;;13.60;99.90;;;;;;5002372;28;20665;-58
2023/10/11 03:18:25;;;;;;;13.80;4.97;;;13.50;99.90;;;;;;5005385;28;20239;-58
2023/10/11 03:20:58;;;;;;;10.40;5.77;;;13.50;99.90;;;;;;5004038;28;20208;-57
2023/10/11 03:23:27;;;;;;;9.03;5.20;;;13.50;99.90;;;;;;5003301;28;20227;-57
2023/10/11 03:25:55;;;;;;;12.33;5.20;;;13.50;99.90;;;;;;5006241;28;20633;-58
2023/10/11 03:28:26;;;;;;;10.40;5.00;;;13.50;99.90;;;;;;5006209;28;20234;-58
2023/10/11 03:30:53;;;;;;;14.10;4.90;;;13.60;99.90;;;;;;5003633;28;20203;-59
2023/10/11 03:33:21;;;;;;;9.87;4.77;;;13.60;99.90;;;;;;5003200;28;20583;-57
2023/10/11 03:35:50;;;;;;;12.77;5.10;;;13.60;99.90;;;;;;5005089;28;20702;-58
2023/10/11 03:38:19;;;;;;;14.73;5.10;;;13.60;99.90;;;;;;5006309;28;20254;-59
2023/10/11 03:40:55;;;;;;;10.23;5.00;;;13.60;99.90;;;;;;5004530;28;20214;-59
2023/10/11 03:43:23;;;;;;;12.63;5.33;;;13.60;99.90;;;;;;5003067;28;20215;-58
2023/10/11 03:45:56;;;;;;;12.30;5.00;;;13.60;99.90;;;;;;5005582;28;20638;-58
2023/10/11 03:48:27;;;;;;;9.77;5.10;;;13.60;99.90;;;;;;5006181;28;20671;-58
2023/10/11 03:50:56;;;;;;;10.53;5.33;;;13.60;99.90;;;;;;5003040;28;20210;-58
2023/10/11 03:53:22;;;;;;;15.60;5.23;;;13.60;99.90;;;;;;5002927;28;20227;-57
2023/10/11 03:55:50;;;;;;;10.90;5.00;;;13.60;99.90;;;;;;5005130;28;20231;-58
2023/10/11 03:58:32;;;;;;;9.03;4.73;;;13.50;99.90;;;;;;5006094;28;20234;-58
2023/10/11 04:01:06;;;;;;;11.13;5.30;;;13.50;99.90;;;;;;5003062;28;20286;-58
2023/10/11 04:03:33;;;;;;;12.33;5.37;;;13.40;99.90;;;;;;5002830;28;20212;-58
2023/10/11 04:06:05;;;;;;;11.60;5.10;;;13.40;99.90;;;;;;5005980;28;20639;-59
2023/10/11 04:08:32;;;;;;;14.70;5.60;;;13.40;99.90;;;;;;5005698;28;20289;-58
2023/10/11 04:10:59;;;;;;;9.00;5.00;;;13.40;99.90;;;;;;5002570;28;20346;-58
2023/10/11 04:13:30;;;;;;;9.10;4.93;;;13.40;99.90;;;;;;5002674;28;20208;-58
2023/10/11 04:15:59;;;;;;;14.83;5.37;;;13.30;99.90;;;;;;5005571;28;20704;-58
2023/10/11 04:18:37;;;;;;;15.03;5.27;;;13.30;99.90;;;;;;5006180;28;20227;-59
2023/10/11 04:21:25;;;;;;;15.20;4.80;;;13.30;99.90;;;;;;5002484;28;20291;-59
2023/10/11 04:23:55;;;;;;;12.17;5.27;;;13.20;99.90;;;;;;5005146;28;20665;-59
2023/10/11 04:26:35;;;;;;;12.13;5.27;;;13.20;99.90;;;;;;5006329;28;20207;-58
2023/10/11 04:29:06;;;;;;;12.53;5.37;;;13.20;99.90;;;;;;5001495;28;20673;-59
2023/10/11 04:31:50;;;;;;;11.77;5.57;;;13.20;99.90;;;;;;5002282;28;20222;-57
2023/10/11 04:34:22;;;;;;;10.87;5.83;;;13.20;99.90;;;;;;5005424;28;20206;-57
2023/10/11 04:36:55;;;;;;;10.20;5.80;;;13.10;99.90;;;;;;5003270;28;20629;-59
2023/10/11 04:39:28;;;;;;;12.90;5.80;;;13.10;99.90;;;;;;5001959;28;20226;-57
2023/10/11 04:41:57;;;;;;;10.43;5.13;;;13.20;99.90;;;;;;5004802;28;20274;-58
2023/10/11 04:44:30;;;;;;;14.97;4.90;;;13.20;99.90;;;;;;5005335;28;20239;-56
2023/10/11 04:46:58;;;;;;;14.23;5.63;;;13.20;99.90;;;;;;5002023;28;20307;-57
2023/10/11 04:49:25;;;;;;;10.47;5.10;;;13.20;99.90;;;;;;5001713;28;20285;-57
2023/10/11 04:51:56;;;;;;;10.90;5.20;;;13.30;99.90;;;;;;5004079;28;20674;-58
2023/10/11 04:54:35;;;;;;;14.37;5.90;;;13.30;99.90;;;;;;5004996;28;20301;-57
2023/10/11 04:59:36;;;;;;;10.93;5.37;;;13.40;99.90;;;;;;5028602;23;20239;-63
2023/10/11 05:02:08;;;;;;;14.10;5.63;;;13.40;99.90;;;;;;5005337;28;20624;-61
2023/10/11 05:04:44;;;;;;;10.60;5.67;;;13.40;99.90;;;;;;5012798;28;20290;-61
2023/10/11 05:07:14;;;;;;;9.73;5.03;;;13.40;99.90;;;;;;5012448;28;20263;-63
2023/10/11 05:09:41;;;;;;;13.17;5.27;;;13.40;99.90;;;;;;5012532;28;20218;-61
2023/10/11 05:12:12;;;;;;;12.77;5.97;;;13.30;99.90;;;;;;5012763;28;20238;-61
2023/10/11 05:14:53;;;;;;;9.87;5.40;;;13.40;99.90;;;;;;5012816;28;20203;-61
2023/10/11 05:20:44;;;;;;;10.23;5.10;;;13.30;99.90;;;;;;4982269;28;20218;-61
2023/10/11 05:23:13;;;;;;;10.40;5.20;;;13.30;99.90;;;;;;5006239;28;20207;-61
2023/10/11 05:25:56;;;;;;;13.43;6.40;;;13.20;99.90;;;;;;5012730;28;20210;-61
2023/10/11 05:28:30;;;;;;;9.67;5.30;;;13.10;99.90;;;;;;5013022;28;20750;-61
2023/10/11 05:33:58;;;;;;;8.90;5.70;;;13.00;99.90;;;;;;5012629;28;20585;-61
2023/10/11 05:36:40;;;;;;;11.27;5.60;;;12.90;99.90;;;;;;5012292;28;20227;-62
2023/10/11 05:52:45;;;;;;;11.40;6.00;;;12.70;99.90;;;;;;5011915;28;20294;-62
2023/10/11 05:55:13;;;;;;;13.70;6.40;;;12.70;99.90;;;;;;5012000;28;20234;-62
2023/10/11 05:57:42;;;;;;;9.60;5.40;;;12.60;99.90;;;;;;5011521;28;20262;-62
2023/10/11 06:00:22;;;;;;;11.53;5.53;;;12.60;99.90;;;;;;5012127;28;20207;-62
2023/10/11 06:02:51;;;;;;;13.87;6.10;;;12.60;99.90;;;;;;5011971;28;20584;-61
2023/10/11 06:05:22;;;;;;;11.83;5.70;;;12.70;99.90;;;;;;5011575;28;20562;-60
2023/10/11 06:08:00;;;;;;;13.43;6.47;;;12.70;99.90;;;;;;5011525;28;20227;-60
2023/10/11 06:10:41;;;;;;;10.87;6.37;;;12.80;99.90;;;;;;5012100;28;20257;-61
2023/10/11 06:13:13;;;;;;;12.83;6.00;;;12.90;99.90;;;;;;5004742;28;20673;-61
2023/10/11 06:15:43;;;;;;;12.57;5.83;;;13.00;99.90;;;;;;5011464;28;20215;-63
2023/10/11 06:18:36;;;;;;;15.50;6.10;;;13.00;99.90;;;;;;5011423;28;20246;-61
2023/10/11 06:21:05;;;;;;;13.57;5.60;;;13.10;99.90;;;;;;5011134;28;20215;-60
2023/10/11 06:23:32;;;;;;;13.23;5.63;;;13.20;99.90;;;;;;5011818;28;20260;-61
2023/10/11 06:26:28;;;;;;;14.17;5.67;;;13.50;99.90;;;;;;5011609;28;20257;-61
2023/10/11 06:28:47;;;;;;;13.00;5.57;;;13.90;99.90;;;;;;5010883;28;20707;-65
2023/10/11 06:31:16;;;;;;;10.63;4.83;;;14.80;99.90;;;;;;5011393;28;20203;-60
2023/10/11 06:33:45;;;;;;;10.45;5.30;;;15.60;99.90;;;;;;5011408;28;20214;-60
2023/10/11 06:36:14;;;;;;;11.00;5.15;;;16.30;99.90;;;;;;5010871;28;20222;-60
2023/10/11 06:38:43;;;;;;;12.57;5.28;;;17.00;99.90;;;;;;5011131;28;20235;-60
2023/10/11 06:43:55;;;;;;;11.75;4.85;;;18.30;99.90;;;;;;5011377;28;20241;-58
2023/10/11 06:46:22;;;;;;;12.55;4.88;;;18.80;99.90;;;;;;5011180;28;20207;-60
2023/10/11 06:48:49;;;;;;;9.55;4.75;;;19.10;99.90;;;;;;5010754;28;20636;-59
2023/10/11 06:51:16;;;;;;;10.65;4.63;;;19.60;99.90;;;;;;5011066;28;20745;-60
2023/10/11 06:53:45;;;;;;;10.98;4.82;;;20.20;99.90;;;;;;5010736;28;20207;-60
2023/10/11 06:56:16;;;;;;;9.23;5.07;;;20.80;99.90;;;;;;5011365;28;20297;-60
2023/10/11 06:58:45;;;;;;;12.55;5.30;;;21.30;99.90;;;;;;5011029;28;20313;-60
2023/10/11 07:01:13;;;;;;;8.60;4.80;;;21.80;99.90;;;;;;5011330;28;20211;-59
2023/10/11 07:03:40;;;;;;;13.52;4.75;;;22.40;99.90;;;;;;5012005;28;20285;-59
2023/10/11 07:06:11;;;;;;;14.70;4.55;;;22.90;99.90;;;;;;5012596;28;20207;-60
2023/10/11 07:08:48;;;;;;;9.57;4.70;;;23.30;99.90;;;;;;5012779;28;20783;-61
2023/10/11 07:11:36;;;;;;;13.98;4.82;;;23.60;99.90;;;;;;5013604;28;20228;-61
2023/10/11 07:14:05;;;;;;;10.98;4.53;;;23.80;99.90;;;;;;5005547;28;20207;-60
2023/10/11 07:16:33;;;;;;;10.05;4.53;;;23.90;99.90;;;;;;5013029;28;20237;-61
2023/10/11 07:19:00;;;;;;;12.48;5.28;;;23.80;99.90;;;;;;5013161;28;20219;-60
2023/10/11 07:21:48;;;;;;;8.95;4.65;;;23.50;99.90;;;;;;5011736;28;20207;-60
2023/10/11 07:24:31;;;;;;;8.63;4.82;;;23.00;99.90;;;;;;5005414;28;20207;-61
2023/10/11 07:27:07;;;;;;;11.63;5.07;;;22.30;99.90;;;;;;5011114;28;20294;-60
2023/10/11 07:29:35;;;;;;;11.10;4.80;;;21.60;99.90;;;;;;5011238;28;20206;-60
2023/10/11 07:32:02;;;;;;;10.13;4.88;;;20.90;99.90;;;;;;5011057;28;20388;-60
2023/10/11 07:34:29;;;;;;;8.27;4.30;;;20.30;99.90;;;;;;5011130;28;20497;-60
2023/10/11 07:36:56;;;;;;;12.50;4.68;;;19.80;99.90;;;;;;5010816;28;20434;-60
2023/10/11 07:39:26;;;;;;;15.25;4.43;;;19.50;99.90;;;;;;5010903;28;20261;-60
2023/10/11 07:42:00;;;;;;;11.00;5.07;;;19.20;99.90;;;;;;5010905;28;20744;-61
2023/10/11 07:44:30;;;;;;;15.20;4.50;;;19.00;99.90;;;;;;5011116;28;20684;-60
2023/10/11 07:46:57;;;;;;;12.77;4.82;;;18.80;99.90;;;;;;5010771;28;20595;-60
2023/10/11 07:49:24;;;;;;;8.77;4.05;;;18.60;99.90;;;;;;5010459;28;20237;-61
2023/10/11 07:51:53;;;;;;;10.73;4.68;;;18.50;99.90;;;;;;5010708;28;20580;-61
2023/10/11 07:54:20;;;;;;;11.00;4.05;;;18.40;99.90;;;;;;5010888;28;20253;-60
2023/10/11 07:56:49;;;;;;;12.13;4.80;;;18.40;99.90;;;;;;5010415;28;20258;-61
2023/10/11 07:59:16;;;;;;;15.05;4.88;;;18.50;99.90;;;;;;5010303;28;20266;-60
2023/10/11 08:01:44;;;;;;;12.35;4.65;;;18.50;99.90;;;;;;5010563;28;20214;-60
2023/10/11 08:04:12;;;;;;;11.23;4.43;;;18.50;99.90;;;;;;5011215;28;20213;-60
2023/10/11 08:06:41;;;;;;;10.35;4.07;;;18.50;99.90;;;;;;5014067;28;20754;-60
2023/10/11 08:09:09;;;;;;;13.60;4.65;;;18.60;99.90;;;;;;5013930;28;20227;-61
2023/10/11 08:11:48;;;;;;;13.57;4.45;;;18.70;99.90;;;;;;5014324;28;20690;-60
2023/10/11 08:14:15;;;;;;;16.65;4.75;;;18.80;99.90;;;;;;4999889;28;20261;-60
2023/10/11 08:16:47;;;;;;;12.88;4.55;;;18.90;99.90;;;;;;5013841;28;20222;-61
2023/10/11 08:19:14;;;;;;;11.52;4.38;;;19.00;99.90;;;;;;5014010;28;20332;-62
2023/10/11 08:21:47;;;;;;;13.23;4.05;;;19.00;99.90;;;;;;5013545;28;20684;-64
2023/10/11 08:24:16;;;;;;;9.48;4.35;;;19.10;99.90;;;;;;5013442;28;20410;-63
2023/10/11 08:26:45;;;;;;;11.98;4.28;;;19.20;99.90;;;;;;5013474;28;20635;-64
2023/10/11 08:29:25;;;;;;;10.65;4.78;;;19.40;99.90;;;;;;5013496;28;20233;-63
2023/10/11 08:31:53;;;;;;;9.68;4.53;;;19.50;99.90;;;;;;5013211;28;20298;-63
2023/10/11 08:34:20;;;;;;;12.23;4.50;;;19.60;99.90;;;;;;5013525;28;20246;-62
2023/10/11 08:36:48;;;;;;;11.48;5.53;;;19.60;99.90;;;;;;5012848;28;20233;-62
2023/10/11 08:39:21;;;;;;;13.32;4.55;;;19.70;99.90;;;;;;5013134;28;20239;-62
2023/10/11 08:41:47;;;;;;;10.15;4.93;;;19.80;99.90;;;;;;5013168;28;20576;-62
2023/10/11 08:44:20;;;;;;;13.82;4.10;;;19.90;99.90;;;;;;5013538;28;20699;-62
2023/10/11 08:46:49;;;;;;;12.35;4.68;;;20.00;99.90;;;;;;5013304;28;20219;-60
2023/10/11 08:49:18;;;;;;;11.55;4.40;;;20.10;99.90;;;;;;5012838;28;20329;-62
2023/10/11 08:51:45;;;;;;;16.67;4.18;;;20.30;99.90;;;;;;5013182;28;20214;-62
2023/10/11 08:54:13;;;;;;;12.50;3.78;;;20.40;99.90;;;;;;5013092;28;20628;-60
2023/10/11 08:56:40;;;;;;;12.32;3.97;;;20.60;99.90;;;;;;5013189;28;20211;-62
2023/10/11 08:59:07;;;;;;;9.77;3.60;;;20.80;99.90;;;;;;5004922;28;20724;-64
2023/10/11 09:01:36;;;;;;;10.98;3.70;;;20.90;99.90;;;;;;5012725;28;20206;-61
2023/10/11 09:04:06;;;;;;;13.68;4.03;;;21.10;99.90;;;;;;5012918;28;20207;-63
2023/10/11 09:06:36;;;;;;;10.73;3.75;;;21.20;99.90;;;;;;5012638;28;20203;-63
2023/10/11 09:09:04;;;;;;;12.02;3.50;;;21.30;99.90;;;;;;5012390;28;20223;-63
2023/10/11 09:11:31;;;;;;;11.90;5.82;;;21.50;99.90;;;;;;5012895;28;20211;-62
2023/10/11 09:14:12;;;;;;;13.90;4.03;;;21.60;99.90;;;;;;5012452;28;20211;-62
2023/10/11 09:16:39;;;;;;;10.50;3.70;;;21.70;99.90;;;;;;5012078;28;20669;-65
2023/10/11 09:19:09;;;;;;;9.23;3.65;;;21.90;99.90;;;;;;5004343;28;20612;-64
2023/10/11 09:21:37;;;;;;;13.82;3.35;;;22.00;99.90;;;;;;5012233;28;20684;-63
2023/10/11 09:24:23;;;;;;;11.32;3.22;;;22.20;99.90;;;;;;5012018;28;20609;-62
2023/10/11 09:27:09;;;;;;;11.27;4.15;;;22.30;99.90;;;;;;5012463;28;20230;-61
2023/10/11 09:29:38;;;;;;;11.55;3.58;;;22.40;99.90;;;;;;5012174;28;20301;-61
2023/10/11 09:32:05;;;;;;;7.53;3.67;;;22.50;99.90;;;;;;5012505;28;20673;-61
2023/10/11 09:34:32;;;;;;;8.63;3.50;;;22.60;99.90;;;;;;5012715;28;20238;-61
2023/10/11 09:37:01;;;;;;;11.90;3.83;;;22.70;99.90;;;;;;5012234;28;20597;-61
2023/10/11 09:39:29;;;;;;;6.28;3.80;;;22.90;99.90;;;;;;5011841;28;20214;-62
2023/10/11 09:42:02;;;;;;;13.38;3.78;;;22.90;99.90;;;;;;5012161;28;20215;-61
2023/10/11 09:44:37;;;;;;;15.13;4.50;;;23.00;99.90;;;;;;5012049;28;20570;-61
2023/10/11 09:47:05;;;;;;;10.73;3.58;;;23.20;99.90;;;;;;5011898;28;20242;-62
2023/10/11 09:49:41;;;;;;;10.98;3.53;;;23.30;99.60;;;;;;5012056;28;20234;-62
2023/10/11 09:52:10;;;;;;;13.05;3.78;;;23.40;99.40;;;;;;5004153;28;20269;-63
2023/10/11 09:54:39;;;;;;;7.82;3.20;;;23.50;99.20;;;;;;5012073;28;20324;-59
2023/10/11 09:57:15;;;;;;;9.63;3.67;;;23.60;99.20;;;;;;5011323;28;20221;-62
2023/10/11 09:59:49;;;;;;;10.95;4.07;;;23.70;99.20;;;;;;5011961;28;20247;-61
2023/10/11 10:02:22;;;;;;;11.45;4.47;;;23.80;99.00;;;;;;5004923;28;20207;-61
2023/10/11 10:04:57;;;;;;;12.90;3.42;;;23.90;98.80;;;;;;5011841;28;20655;-61
2023/10/11 10:07:26;;;;;;;12.82;4.18;;;24.00;98.60;;;;;;5011684;28;20610;-62
2023/10/11 10:09:59;;;;;;;10.00;3.97;;;24.00;98.30;;;;;;5012523;28;20210;-61
2023/10/11 10:12:27;;;;;;;10.73;3.83;;;24.10;99.10;;;;;;5011465;28;20564;-62
2023/10/11 10:15:09;;;;;;;9.98;4.15;;;24.20;98.20;;;;;;5011668;28;20209;-62
2023/10/11 10:17:37;;;;;;;10.38;4.15;;;24.20;98.30;;;;;;5011641;28;20230;-62
2023/10/11 10:20:47;;;;;;;12.73;3.95;;;24.30;98.20;;;;;;5011346;28;20239;-62
2023/10/11 10:23:37;;;;;;;15.43;3.83;;;24.50;98.10;;;;;;5004021;28;20222;-62
2023/10/11 10:26:33;;;;;;;20.02;4.85;;;24.60;98.40;;;;;;5011574;28;20739;-62
2023/10/11 10:29:00;;;;;;;10.63;4.40;;;24.80;97.90;;;;;;5011002;28;20214;-62
2023/10/11 10:31:27;;;;;;;11.52;3.95;;;24.80;97.10;;;;;;5011191;28;20221;-62
2023/10/11 10:34:24;;;;;;;10.43;3.70;;;25.00;97.10;;;;;;5010707;28;20282;-62
2023/10/11 10:36:52;;;;;;;14.57;3.72;;;25.00;97.10;;;;;;5010974;28;20734;-62
2023/10/11 10:39:47;;;;;;;9.85;4.78;;;25.20;97.00;;;;;;5010756;28;20227;-62
2023/10/11 10:42:17;;;;;;;16.02;9.07;;;25.20;96.60;;;;;;5003414;28;20277;-62
2023/10/11 10:44:51;;;;;;;12.75;4.72;;;25.40;96.40;;;;;;5010608;28;20214;-62
2023/10/11 10:47:28;;;;;;;16.48;3.78;;;25.40;95.70;;;;;;5010876;28;20712;-62
2023/10/11 10:49:56;;;;;;;14.57;4.35;;;25.50;95.50;;;;;;5010964;28;20309;-64
2023/10/11 10:52:25;;;;;;;11.32;4.10;;;25.60;95.30;;;;;;5010370;28;20199;-61
2023/10/11 10:55:01;;;;;;;12.60;4.07;;;25.60;95.00;;;;;;5010725;28;20695;-60
2023/10/11 10:57:31;;;;;;;11.90;3.90;;;25.70;95.20;;;;;;5035916;23;20734;-58
2023/10/11 10:59:58;;;;;;;13.38;4.13;;;25.80;95.00;;;;;;5041770;28;20272;-56
2023/10/11 11:02:25;;;;;;;9.63;3.90;;;25.80;94.90;;;;;;5042060;28;20678;-57
2023/10/11 11:04:51;;;;;;;15.85;3.63;;;25.90;94.70;;;;;;5041308;28;20364;-57
2023/10/11 11:07:25;;;;;;;9.50;3.65;;;26.00;94.30;;;;;;5039312;28;20285;-57
2023/10/11 11:09:54;;;;;;;10.10;3.90;;;26.10;94.10;;;;;;5019871;28;20210;-57
2023/10/11 11:12:28;;;;;;;8.77;3.63;;;26.20;93.90;;;;;;5022635;28;20281;-58
2023/10/11 11:14:55;;;;;;;12.85;4.03;;;26.30;94.10;;;;;;5020873;28;20210;-56
2023/10/11 11:17:23;;;;;;;10.20;4.28;;;26.30;93.60;;;;;;5018906;28;20203;-57
2023/10/11 11:20:27;;;;;;;11.93;4.20;;;26.40;93.90;;;;;;5019718;28;20237;-57
2023/10/11 11:22:54;;;;;;;18.25;5.25;;;26.50;93.50;;;;;;5020604;28;20206;-57
2023/10/11 11:25:27;;;;;;;13.45;3.80;;;26.60;93.40;;;;;;5019130;28;20290;-56
2023/10/11 11:28:07;;;;;;;14.40;6.80;;;26.60;92.90;;;;;;5020098;28;20325;-57
2023/10/11 11:30:34;;;;;;;14.45;4.70;;;26.70;92.90;;;;;;5022585;28;20347;-57
2023/10/11 11:33:08;;;;;;;12.30;4.15;;;26.70;92.60;;;;;;5020370;28;20276;-57
2023/10/11 11:35:43;;;;;;;10.02;3.88;;;26.80;92.60;;;;;;5019064;28;20213;-57
2023/10/11 11:38:20;;;;;;;12.15;3.97;;;26.80;92.50;;;;;;5027762;28;20246;-57
2023/10/11 11:40:47;;;;;;;10.18;3.75;;;26.90;92.30;;;;;;5023110;28;20245;-57
2023/10/11 11:43:17;;;;;;;12.27;3.72;;;27.00;92.20;;;;;;5026309;28;20208;-56
2023/10/11 11:45:44;;;;;;;9.63;3.92;;;27.10;91.80;;;;;;5026275;28;20225;-57
2023/10/11 11:48:11;;;;;;;14.70;3.85;;;27.20;91.70;;;;;;5022649;28;20214;-57
2023/10/11 11:50:38;;;;;;;14.18;4.25;;;27.20;90.80;;;;;;5022739;28;20209;-57
2023/10/11 11:53:06;;;;;;;8.80;4.22;;;27.20;91.20;;;;;;5025549;28;20214;-56
2023/10/11 11:55:34;;;;;;;12.90;4.00;;;27.20;91.00;;;;;;5026252;28;20292;-57
2023/10/11 11:58:02;;;;;;;12.88;5.55;;;27.30;91.00;;;;;;5023571;28;20704;-57
2023/10/11 12:00:39;;;;;;;11.68;3.90;;;27.40;91.10;;;;;;5022734;28;20203;-61
2023/10/11 12:03:05;;;;;;;15.02;4.22;;;27.40;91.10;;;;;;5025215;28;20225;-58
2023/10/11 12:05:37;;;;;;;12.27;4.20;;;27.60;91.20;;;;;;5025935;28;20202;-59
2023/10/11 12:08:05;;;;;;;12.13;3.97;;;27.60;91.00;;;;;;5023034;28;20226;-57
2023/10/11 12:10:32;;;;;;;9.68;3.75;;;27.70;90.50;;;;;;5022138;28;20234;-58
2023/10/11 12:13:05;;;;;;;11.32;4.43;;;27.60;90.60;;;;;;5023957;28;20199;-58
2023/10/11 12:15:34;;;;;;;17.70;4.10;;;27.50;90.20;;;;;;5025779;28;20222;-57
2023/10/11 12:18:05;;;;;;;10.77;3.67;;;27.40;90.20;;;;;;5023339;28;20396;-58
2023/10/11 12:20:34;;;;;;;17.60;4.35;;;27.40;90.60;;;;;;5022945;28;20207;-57
2023/10/11 12:23:07;;;;;;;11.38;3.90;;;27.40;90.50;;;;;;5024808;28;20238;-58
2023/10/11 12:25:35;;;;;;;13.63;3.70;;;27.30;90.50;;;;;;5025593;28;20214;-57
2023/10/11 12:28:04;;;;;;;10.70;4.25;;;27.20;90.80;;;;;;5023120;28;20708;-58
2023/10/11 12:30:35;;;;;;;13.93;3.80;;;27.20;91.00;;;;;;5021976;28;20203;-57
2023/10/11 12:33:06;;;;;;;10.65;3.78;;;27.10;91.20;;;;;;5023637;28;20587;-56
2023/10/11 12:35:34;;;;;;;14.13;4.10;;;27.10;91.20;;;;;;5025223;28;20293;-57
2023/10/11 12:38:01;;;;;;;9.65;4.03;;;27.10;91.40;;;;;;5022976;28;20229;-56
2023/10/11 12:40:29;;;;;;;12.10;3.75;;;27.10;91.40;;;;;;5021615;28;20585;-57
2023/10/11 12:42:56;;;;;;;12.77;3.90;;;27.20;91.00;;;;;;5022626;28;20680;-57
2023/10/11 12:45:23;;;;;;;16.88;6.20;;;27.30;91.10;;;;;;5025148;28;20226;-58
2023/10/11 12:47:51;;;;;;;9.10;4.32;;;27.50;91.10;;;;;;5024008;28;20222;-57
2023/10/11 12:50:20;;;;;;;11.90;3.97;;;27.60;90.90;;;;;;5021271;28;20238;-57
2023/10/11 12:52:52;;;;;;;9.20;3.60;;;27.70;90.70;;;;;;5021299;28;20298;-58
2023/10/11 12:55:20;;;;;;;14.50;3.88;;;27.80;90.80;;;;;;5021380;28;20199;-58
2023/10/11 12:57:48;;;;;;;11.27;3.95;;;27.90;90.70;;;;;;5020883;28;20497;-58
2023/10/11 13:00:28;;;;;;;12.60;4.05;;;27.90;90.50;;;;;;5016778;28;20587;-57
2023/10/11 13:02:58;;;;;;;9.25;3.50;;;28.00;90.30;;;;;;5023766;28;20206;-58
2023/10/11 13:05:27;;;;;;;11.15;4.53;;;28.00;90.30;;;;;;5021330;28;20261;-58
2023/10/11 13:07:54;;;;;;;12.02;3.80;;;28.00;90.30;;;;;;5021729;28;20282;-56
2023/10/11 13:10:22;;;;;;;11.73;4.03;;;28.10;90.10;;;;;;5024483;28;20206;-57
2023/10/11 13:12:50;;;;;;;8.75;4.20;;;28.10;90.20;;;;;;5024245;28;20238;-58
2023/10/11 13:15:18;;;;;;;11.95;3.97;;;28.10;90.20;;;;;;5021102;28;20199;-58
2023/10/11 13:17:46;;;;;;;11.25;3.60;;;28.10;89.00;;;;;;5020949;28;20230;-58
2023/10/11 13:20:18;;;;;;;10.60;3.20;;;28.10;88.40;;;;;;5024453;28;20199;-57
2023/10/11 13:22:46;;;;;;;7.38;3.80;;;28.10;88.10;;;;;;5024419;28;20592;-58